createdAt,value
2024-01-15T00:00:58.914Z,118.78
2024-01-15T00:04:05.984Z,117.95
2024-01-15T00:07:14.577Z,122.24
2024-01-15T00:10:21.773Z,123.74
2024-01-15T00:13:28.577Z,121.63
2024-01-15T00:16:35.342Z,115.16
2024-01-15T00:19:42.314Z,115.55
2024-01-15T00:22:51.712Z,113.29
2024-01-15T00:25:57.675Z,111.50
2024-01-15T00:29:04.451Z,104.25
2024-01-15T00:32:10.655Z,99.25
2024-01-15T00:35:18.486Z,101.14
2024-01-15T00:38:27.471Z,98.03
2024-01-15T00:41:36.776Z,92.31
2024-01-15T00:44:42.447Z,95.28
2024-01-15T00:47:49.278Z,93.16
2024-01-15T00:50:55.852Z,93.12
2024-01-15T00:54:05.256Z,94.01
2024-01-15T00:57:11.154Z,90.04
2024-01-15T01:00:18.980Z,88.00
2024-01-15T01:03:25.525Z,89.29
2024-01-15T01:06:34.287Z,88.40
2024-01-15T01:09:43.142Z,86.13
2024-01-15T01:12:49.684Z,88.11
2024-01-15T01:15:55.343Z,89.04
2024-01-15T01:19:02.145Z,87.85
2024-01-15T01:22:08.388Z,86.36
2024-01-15T01:25:17.722Z,88.84
2024-01-15T01:28:23.346Z,87.58
2024-01-15T01:31:29.929Z,95.12
2024-01-15T01:34:45.361Z,96.10
2024-01-15T01:37:52.040Z,97.69
2024-01-15T01:41:00.403Z,93.91
2024-01-15T01:44:08.745Z,92.12
2024-01-15T01:47:14.838Z,98.84
2024-01-15T01:50:22.521Z,100.18
2024-01-15T01:53:30.515Z,96.48
2024-01-15T01:56:40.467Z,92.61
2024-01-15T01:59:46.425Z,94.63
2024-01-15T02:02:53.612Z,91.71
2024-01-15T02:06:00.643Z,92.28
2024-01-15T02:09:08.621Z,92.37
2024-01-15T02:12:17.246Z,91.47
2024-01-15T02:15:23.831Z,89.73
2024-01-15T02:18:30.404Z,87.43
2024-01-15T02:21:36.826Z,79.22
2024-01-15T02:24:46.534Z,74.02
2024-01-15T02:27:52.660Z,77.57
2024-01-15T02:30:59.404Z,77.34
2024-01-15T02:34:05.674Z,70.76
2024-01-15T02:37:12.170Z,66.83
2024-01-15T02:40:20.473Z,59.97
2024-01-15T02:43:26.991Z,59.58
2024-01-15T02:46:32.694Z,61.17
2024-01-15T02:49:39.288Z,64.40
2024-01-15T02:52:46.665Z,63.38
2024-01-15T02:55:55.912Z,63.34
2024-01-15T02:59:01.716Z,66.11
2024-01-15T03:02:08.561Z,62.58
2024-01-15T03:05:14.676Z,66.18
2024-01-15T03:08:21.249Z,66.04
2024-01-15T03:11:29.780Z,59.83
2024-01-15T03:14:36.317Z,62.21
2024-01-15T03:17:42.030Z,59.50
2024-01-15T03:20:48.587Z,61.28
2024-01-15T03:23:54.320Z,59.72
2024-01-15T03:27:03.446Z,63.28
2024-01-15T03:30:12.697Z,65.65
2024-01-15T03:33:19.526Z,61.34
2024-01-15T03:36:25.384Z,64.38
2024-01-15T03:39:32.112Z,64.68
2024-01-15T03:42:40.564Z,65.69
2024-01-15T03:45:47.215Z,60.66
2024-01-15T03:48:53.172Z,57.97
2024-01-15T03:51:59.659Z,58.08
2024-01-15T03:55:05.393Z,58.29
2024-01-15T03:58:16.208Z,55.68
2024-01-15T04:01:21.898Z,56.67
2024-01-15T04:04:28.531Z,58.78
2024-01-15T04:07:34.341Z,60.37
2024-01-15T04:10:40.935Z,60.04
2024-01-15T04:13:49.519Z,59.59
2024-01-15T04:16:55.999Z,57.25
2024-01-15T04:20:02.070Z,58.81
2024-01-15T04:23:08.849Z,59.78
2024-01-15T04:26:14.584Z,59.96
2024-01-15T04:29:23.607Z,57.42
2024-01-15T04:32:29.383Z,56.81
2024-01-15T04:35:36.006Z,58.99
2024-01-15T04:38:41.679Z,88.30
2024-01-15T04:41:48.282Z,58.22
2024-01-15T04:44:56.818Z,59.70
2024-01-15T04:48:03.474Z,68.26
2024-01-15T04:51:12.955Z,65.06
2024-01-15T04:54:19.932Z,63.25
2024-01-15T04:57:25.703Z,64.38
2024-01-15T05:00:35.109Z,65.98
2024-01-15T05:03:40.933Z,66.75
2024-01-15T05:06:47.739Z,67.68
2024-01-15T05:09:53.716Z,61.57
2024-01-15T05:13:00.287Z,67.82
2024-01-15T05:16:09.454Z,69.95
2024-01-15T05:19:16.136Z,74.52
2024-01-15T05:22:22.521Z,72.57
2024-01-15T05:25:29.047Z,71.69
2024-01-15T05:28:34.842Z,70.94
2024-01-15T05:31:44.092Z,74.92
2024-01-15T05:34:50.009Z,72.07
2024-01-15T05:37:56.538Z,73.66
2024-01-15T05:41:02.191Z,75.79
2024-01-15T05:44:08.824Z,75.51
2024-01-15T05:47:17.300Z,75.41
2024-01-15T05:50:23.814Z,76.56
2024-01-15T05:53:29.696Z,75.14
2024-01-15T05:56:36.159Z,74.04
2024-01-15T05:59:41.898Z,77.96
2024-01-15T06:02:51.187Z,74.81
2024-01-15T06:05:56.989Z,74.45
2024-01-15T06:09:06.819Z,79.37
2024-01-15T06:12:13.831Z,80.42
2024-01-15T06:15:20.542Z,77.33
2024-01-15T06:18:29.168Z,82.59
2024-01-15T06:21:35.734Z,83.40
2024-01-15T06:24:41.545Z,82.46
2024-01-15T06:27:48.028Z,82.18
2024-01-15T06:30:54.371Z,88.29
2024-01-15T06:34:03.605Z,88.59
2024-01-15T06:37:10.104Z,93.80
2024-01-15T06:40:16.635Z,98.47
2024-01-15T06:43:22.740Z,98.82
2024-01-15T06:46:29.217Z,98.72
2024-01-15T06:49:37.596Z,97.92
2024-01-15T06:52:44.073Z,98.54
2024-01-15T06:55:50.722Z,102.82
2024-01-15T06:58:57.224Z,110.86
2024-01-15T07:02:03.612Z,110.80
2024-01-15T07:05:13.059Z,111.67
2024-01-15T07:08:18.839Z,113.70
2024-01-15T07:11:25.284Z,103.45
2024-01-15T07:14:31.063Z,110.12
2024-01-15T07:17:40.785Z,107.62
2024-01-15T07:20:49.387Z,107.34
2024-01-15T07:23:55.785Z,109.29
2024-01-15T07:27:01.556Z,109.19
2024-01-15T07:30:10.567Z,121.67
2024-01-15T07:33:16.651Z,154.15
2024-01-15T07:36:26.022Z,120.85
2024-01-15T07:39:32.202Z,125.37
2024-01-15T07:42:39.578Z,125.87
2024-01-15T07:45:46.839Z,122.93
2024-01-15T07:48:57.795Z,116.00
2024-01-15T07:52:06.668Z,105.52
2024-01-15T07:55:13.292Z,115.71
2024-01-15T07:58:19.142Z,126.55
2024-01-15T08:01:25.808Z,126.74
2024-01-15T08:04:31.868Z,112.79
2024-01-15T08:07:41.054Z,118.51
2024-01-15T08:10:47.315Z,121.23
2024-01-15T08:13:53.818Z,130.09
2024-01-15T08:16:59.630Z,124.14
2024-01-15T08:20:06.945Z,117.69
2024-01-15T08:23:15.531Z,134.39
2024-01-15T08:26:22.824Z,134.81
2024-01-15T08:29:29.008Z,136.50
2024-01-15T08:32:37.470Z,129.19
2024-01-15T08:35:43.251Z,120.41
2024-01-15T08:38:52.394Z,126.63
2024-01-15T08:41:58.047Z,130.60
2024-01-15T08:45:04.573Z,128.53
2024-01-15T08:48:10.847Z,132.90
2024-01-15T08:51:17.333Z,124.63
2024-01-15T08:54:25.685Z,123.58
2024-01-15T08:57:32.217Z,125.61
2024-01-15T09:00:38.114Z,125.01
2024-01-15T09:03:45.811Z,121.85
2024-01-15T09:06:51.845Z,134.33
2024-01-15T09:10:01.084Z,143.46
2024-01-15T09:13:07.468Z,144.80
2024-01-15T09:16:14.113Z,145.33
2024-01-15T09:19:20.029Z,145.80
2024-01-15T09:22:26.630Z,147.38
2024-01-15T09:25:34.973Z,165.35
2024-01-15T09:28:41.374Z,170.76
2024-01-15T09:31:47.170Z,170.12
2024-01-15T09:34:55.369Z,184.23
2024-01-15T09:38:01.875Z,172.67
2024-01-15T09:41:11.407Z,171.01
2024-01-15T09:44:18.205Z,173.14
2024-01-15T09:47:26.392Z,173.79
2024-01-15T09:50:32.391Z,156.16
2024-01-15T09:53:41.526Z,143.29
2024-01-15T09:56:50.794Z,144.34
2024-01-15T10:00:01.600Z,145.97
2024-01-15T10:03:12.573Z,146.95
2024-01-15T10:06:22.884Z,158.09
2024-01-15T10:09:29.010Z,161.33
2024-01-15T10:12:43.501Z,162.29
2024-01-15T10:15:51.055Z,159.77
2024-01-15T10:18:57.675Z,178.81
2024-01-15T10:22:04.582Z,170.25
2024-01-15T10:25:15.314Z,168.63
2024-01-15T10:28:24.238Z,177.58
2024-01-15T10:31:31.751Z,169.94
2024-01-15T10:34:37.989Z,151.75
2024-01-15T10:37:46.184Z,159.62
2024-01-15T10:40:52.325Z,154.45
2024-01-15T10:44:01.583Z,141.60
2024-01-15T10:47:09.417Z,128.71
2024-01-15T10:50:16.624Z,126.26
2024-01-15T10:53:22.839Z,128.38
2024-01-15T10:56:34.213Z,136.85
2024-01-15T10:59:42.901Z,133.24
2024-01-15T11:02:51.216Z,132.19
2024-01-15T11:05:58.583Z,168.93
2024-01-15T11:09:05.787Z,134.98
2024-01-15T11:12:17.466Z,157.96
2024-01-15T11:15:30.620Z,133.93
2024-01-15T11:18:42.423Z,132.43
2024-01-15T11:21:49.196Z,132.77
2024-01-15T11:24:55.078Z,132.89
2024-01-15T11:28:01.969Z,136.66
2024-01-15T11:31:10.598Z,146.89
2024-01-15T11:34:17.454Z,182.80
2024-01-15T11:37:24.994Z,152.60
2024-01-15T11:40:44.305Z,157.77
2024-01-15T11:43:50.082Z,160.65
2024-01-15T11:47:04.251Z,173.95
2024-01-15T11:50:13.065Z,181.38
2024-01-15T11:53:36.828Z,180.03
2024-01-15T11:56:43.319Z,176.47
2024-01-15T11:59:51.830Z,168.46
2024-01-15T12:03:03.589Z,172.12
2024-01-15T12:06:11.744Z,172.42
2024-01-15T12:09:17.580Z,170.21
2024-01-15T12:12:39.964Z,165.20
2024-01-15T12:15:47.223Z,161.35
2024-01-15T12:18:56.619Z,170.72
2024-01-15T12:22:02.364Z,149.49
2024-01-15T12:25:09.626Z,141.32
2024-01-15T12:28:15.833Z,149.56
2024-01-15T12:31:23.727Z,144.93
2024-01-15T12:34:33.946Z,150.54
2024-01-15T12:37:41.010Z,149.44
2024-01-15T12:40:50.408Z,157.40
2024-01-15T12:43:57.255Z,147.49
2024-01-15T12:47:03.185Z,155.03
2024-01-15T12:50:19.764Z,154.42
2024-01-15T12:53:26.939Z,153.46
2024-01-15T12:56:33.439Z,142.80
2024-01-15T12:59:39.238Z,132.79
2024-01-15T13:02:46.850Z,142.78
2024-01-15T13:05:55.299Z,145.24
2024-01-15T13:09:02.385Z,154.48
2024-01-15T13:12:09.726Z,140.85
2024-01-15T13:15:16.271Z,141.94
2024-01-15T13:18:22.201Z,143.03
2024-01-15T13:21:31.419Z,144.04
2024-01-15T13:24:37.483Z,152.10
2024-01-15T13:27:44.088Z,142.90
2024-01-15T13:30:49.884Z,136.50
2024-01-15T13:33:57.314Z,149.17
2024-01-15T13:37:06.120Z,145.34
2024-01-15T13:40:18.357Z,136.60
2024-01-15T13:43:28.409Z,148.03
2024-01-15T13:46:35.250Z,161.69
2024-01-15T13:49:41.018Z,149.57
2024-01-15T13:52:50.817Z,134.17
2024-01-15T13:55:56.823Z,123.90
2024-01-15T13:59:05.469Z,127.69
2024-01-15T14:02:11.571Z,148.28
2024-01-15T14:05:18.385Z,153.63
2024-01-15T14:08:26.708Z,160.94
2024-01-15T14:11:33.304Z,170.38
2024-01-15T14:14:39.097Z,150.74
2024-01-15T14:17:46.067Z,152.52
2024-01-15T14:20:52.050Z,131.44
2024-01-15T14:24:01.680Z,119.82
2024-01-15T14:27:09.031Z,124.00
2024-01-15T14:30:17.998Z,142.66
2024-01-15T14:33:24.103Z,131.49
2024-01-15T14:36:30.981Z,129.14
2024-01-15T14:39:39.405Z,128.25
2024-01-15T14:42:46.456Z,117.89
2024-01-15T14:45:52.330Z,117.49
2024-01-15T14:48:58.948Z,117.43
2024-01-15T14:52:04.918Z,116.23
2024-01-15T14:55:14.386Z,119.06
2024-01-15T14:58:20.328Z,110.17
2024-01-15T15:01:27.249Z,109.78
2024-01-15T15:04:33.302Z,119.67
2024-01-15T15:07:40.200Z,117.26
2024-01-15T15:10:49.834Z,124.11
2024-01-15T15:13:56.304Z,134.63
2024-01-15T15:17:02.143Z,159.81
2024-01-15T15:20:11.411Z,158.82
2024-01-15T15:23:18.274Z,168.61
2024-01-15T15:26:27.558Z,180.53
2024-01-15T15:29:33.274Z,184.00
2024-01-15T15:32:39.868Z,179.48
2024-01-15T15:35:45.569Z,179.92
2024-01-15T15:38:53.088Z,179.64
2024-01-15T15:42:02.469Z,155.30
2024-01-15T15:45:10.976Z,160.55
2024-01-15T15:48:16.856Z,169.94
2024-01-15T15:51:23.948Z,144.22
2024-01-15T15:54:29.652Z,130.11
2024-01-15T15:57:38.785Z,137.06
2024-01-15T16:00:45.095Z,141.28
2024-01-15T16:03:51.612Z,120.05
2024-01-15T16:06:58.210Z,115.90
2024-01-15T16:10:04.996Z,106.38
2024-01-15T16:13:15.626Z,107.14
2024-01-15T16:23:10.774Z,113.02
2024-01-15T16:23:27.518Z,114.20
2024-01-15T16:24:02.724Z,126.13
2024-01-15T16:26:48.520Z,133.29
2024-01-15T16:29:57.915Z,128.92
2024-01-15T16:33:03.855Z,127.77
2024-01-15T16:36:10.830Z,130.84
2024-01-15T16:39:16.629Z,133.30
2024-01-15T16:42:29.312Z,135.77
2024-01-15T16:45:37.802Z,129.91
2024-01-15T16:48:44.498Z,135.43
2024-01-15T16:51:50.291Z,147.70
2024-01-15T16:54:56.817Z,163.84
2024-01-15T16:58:02.653Z,135.92
2024-01-15T17:01:12.553Z,143.25
2024-01-15T17:04:18.427Z,134.85
2024-01-15T17:07:25.066Z,139.89
2024-01-15T17:10:32.558Z,127.72
2024-01-15T17:13:39.239Z,128.78
2024-01-15T17:16:47.924Z,124.14
2024-01-15T17:19:55.384Z,132.10
2024-01-15T17:23:01.155Z,128.77
2024-01-15T17:26:08.337Z,130.61
2024-01-15T17:29:14.178Z,142.06
2024-01-15T17:32:23.476Z,157.48
2024-01-15T17:35:29.793Z,140.20
2024-01-15T17:38:37.272Z,144.38
2024-01-15T17:41:43.242Z,111.24
2024-01-15T17:44:50.117Z,114.70
2024-01-15T17:47:58.573Z,115.75
2024-01-15T17:51:05.355Z,114.44
2024-01-15T17:54:11.322Z,110.71
2024-01-15T17:57:20.830Z,114.53
2024-01-15T18:00:27.439Z,112.67
2024-01-15T18:03:37.727Z,118.77
2024-01-15T18:06:43.809Z,115.03
2024-01-15T18:09:50.283Z,109.79
2024-01-15T18:12:55.982Z,117.75
2024-01-15T18:16:02.899Z,117.81
2024-01-15T18:19:12.037Z,117.23
2024-01-15T18:22:19.775Z,111.22
2024-01-15T18:25:25.470Z,113.23
2024-01-15T18:28:32.029Z,113.04
2024-01-15T18:31:37.778Z,110.60
2024-01-15T18:34:47.397Z,115.55
2024-01-15T18:37:53.691Z,115.51
2024-01-15T18:41:03.332Z,109.81
2024-01-15T18:44:09.322Z,104.15
2024-01-15T18:47:15.929Z,112.05
2024-01-15T18:50:24.389Z,161.48
2024-01-15T18:53:31.055Z,145.76
2024-01-15T18:56:39.674Z,191.85
2024-01-15T18:59:48.580Z,131.16
2024-01-15T19:02:58.915Z,133.91
2024-01-15T19:06:08.826Z,142.97
2024-01-15T19:09:14.833Z,193.06
2024-01-15T19:12:21.712Z,176.63
2024-01-15T19:15:27.525Z,170.53
2024-01-15T19:18:35.292Z,119.36
2024-01-15T19:21:44.576Z,150.91
2024-01-15T19:24:51.877Z,130.34
2024-01-15T19:27:58.403Z,150.20
2024-01-15T19:31:05.666Z,155.73
2024-01-15T19:34:11.479Z,120.74
2024-01-15T19:37:20.462Z,121.64
2024-01-15T19:40:29.777Z,194.28
2024-01-15T19:43:37.395Z,121.66
2024-01-15T19:46:44.010Z,209.44
2024-01-15T19:49:50.838Z,151.88
2024-01-15T19:52:59.225Z,215.06
2024-01-15T19:56:05.756Z,237.38
2024-01-15T19:59:11.753Z,197.56
2024-01-15T20:02:18.783Z,233.29
2024-01-15T20:05:25.331Z,185.25
2024-01-15T20:08:34.803Z,121.04
2024-01-15T20:11:41.998Z,130.97
2024-01-15T20:14:51.917Z,150.14
2024-01-15T20:17:58.824Z,119.99
2024-01-15T20:21:06.374Z,124.40
2024-01-15T20:24:22.933Z,126.35
2024-01-15T20:27:32.794Z,120.65
2024-01-15T20:30:42.096Z,113.12
2024-01-15T20:33:48.768Z,114.19
2024-01-15T20:36:54.639Z,123.93
2024-01-15T20:40:04.672Z,120.67
2024-01-15T20:43:11.428Z,133.49
2024-01-15T20:46:18.595Z,120.34
2024-01-15T20:49:24.724Z,133.49
2024-01-15T20:52:36.562Z,162.34
2024-01-15T20:55:45.372Z,126.10
2024-01-15T20:58:52.399Z,108.09
2024-01-15T21:01:58.328Z,110.40
2024-01-15T21:05:04.890Z,127.93
2024-01-15T21:08:10.700Z,126.91
2024-01-15T21:11:19.894Z,137.54
2024-01-15T21:14:25.719Z,107.89
2024-01-15T21:17:33.482Z,104.53
2024-01-15T21:20:39.507Z,117.93
2024-01-15T21:23:46.126Z,101.97
2024-01-15T21:26:54.512Z,103.15
2024-01-15T21:30:01.087Z,99.99
2024-01-15T21:33:09.437Z,103.04
2024-01-15T21:36:16.560Z,111.59
2024-01-15T21:39:22.325Z,109.05
2024-01-15T21:42:31.492Z,110.73
2024-01-15T21:45:39.501Z,112.43
2024-01-15T21:48:46.119Z,127.21
2024-01-15T21:51:51.839Z,97.16
2024-01-15T21:54:58.453Z,95.96
2024-01-15T21:58:07.591Z,97.62
2024-01-15T22:01:14.120Z,102.77
2024-01-15T22:04:19.905Z,100.68
2024-01-15T22:07:26.437Z,91.64
2024-01-15T22:10:32.093Z,98.36
2024-01-15T22:13:42.045Z,91.76
2024-01-15T22:16:47.908Z,89.20
2024-01-15T22:19:54.449Z,89.85
2024-01-15T22:23:00.178Z,99.68
2024-01-15T22:26:08.658Z,94.59
2024-01-15T22:29:17.097Z,103.31
2024-01-15T22:32:23.958Z,112.93
2024-01-15T22:35:30.053Z,103.98
2024-01-15T22:38:36.850Z,93.70
2024-01-15T22:41:42.815Z,105.98
2024-01-15T22:44:52.329Z,102.73
2024-01-15T22:47:58.368Z,99.93
2024-01-15T22:51:04.944Z,103.42
2024-01-15T22:54:10.696Z,92.96
2024-01-15T22:57:17.331Z,91.93
2024-01-15T23:00:25.695Z,99.23
2024-01-15T23:03:32.580Z,93.66
2024-01-15T23:06:38.568Z,96.10
2024-01-15T23:09:45.581Z,93.41
2024-01-15T23:12:51.266Z,93.57
2024-01-15T23:16:00.645Z,93.99
2024-01-15T23:19:06.927Z,100.37
2024-01-15T23:22:13.947Z,104.95
2024-01-15T23:25:20.238Z,105.79
2024-01-15T23:28:26.816Z,112.04
2024-01-15T23:31:35.291Z,114.46
2024-01-15T23:34:42.140Z,119.64
2024-01-15T23:37:48.312Z,113.81
2024-01-15T23:40:54.791Z,108.20
2024-01-15T23:44:00.643Z,110.68
2024-01-15T23:47:09.934Z,110.70
2024-01-15T23:50:15.904Z,112.05
2024-01-15T23:53:22.740Z,115.53
2024-01-15T23:56:28.539Z,113.80
2024-01-15T23:59:37.091Z,111.80
